< Typhoon 195321 1953 Season Typhoon 195323 >
Typhoon 195322 (NO-NAME)
General InformationTrack Information on Google Maps || Disaster Info.ResourceGoogle EarthGE AnimationAtom FeedGeoJSON
Detalied Best Track (Time Zone = UTC)
Year Month Day Hour Lat. Long. Pressure (hPa) Wind (kt) Class Image Chart
1953 11 27 18 5.5 148.6 1003 0 2 -- Chart
1953 11 28 00 5.5 148.0 1003 0 2 -- Chart
1953 11 28 06 5.6 147.4 1003 0 2 -- Chart
1953 11 28 12 5.6 146.8 1004 0 2 -- Chart
1953 11 28 18 5.7 146.3 1004 0 2 -- Chart
1953 11 29 00 5.9 145.7 1006 0 2 -- Chart
1953 11 29 06 6.0 145.2 1006 0 2 -- Chart
1953 11 29 12 6.2 144.6 1006 0 2 -- Chart
1953 11 29 18 6.4 144.0 1004 0 2 -- Chart
1953 11 30 00 6.7 143.4 1002 0 2 -- Chart
1953 11 30 06 6.8 142.9 1000 0 9 -- Chart
1953 11 30 12 6.8 142.6 1000 0 9 -- Chart
1953 11 30 18 6.8 142.3 1000 0 9 -- Chart
1953 12 1 00 6.9 142.0 1000 0 9 -- Chart
1953 12 1 06 7.0 141.2 1000 0 9 -- Chart
1953 12 1 12 7.1 140.3 1000 0 9 -- Chart
1953 12 1 18 7.2 139.4 1002 0 2 -- Chart
1953 12 2 00 7.3 138.5 1002 0 2 -- Chart
1953 12 2 06 7.3 137.5 1002 0 2 -- Chart
1953 12 2 12 7.3 136.6 1002 0 2 -- Chart
1953 12 2 18 7.3 135.6 1002 0 2 -- Chart
1953 12 3 00 7.2 134.6 1003 0 2 -- Chart
1953 12 3 06 7.2 133.8 1000 0 2 -- Chart
1953 12 3 12 7.2 133.2 1000 0 2 -- Chart
1953 12 3 18 7.2 133.6 1000 0 2 -- Chart
1953 12 4 00 7.2 132.0 1000 0 2 -- Chart
1953 12 4 06 7.3 130.9 1000 0 2 -- Chart
1953 12 4 12 7.4 129.9 1000 0 2 -- Chart
1953 12 4 18 7.6 128.9 1000 0 2 -- Chart
1953 12 5 00 7.6 128.4 1004 0 2 -- Chart
Japan Meteorological Agency Best Track Data | Correction Date : 1989-06-01
< Typhoon 195321 1953 Season Typhoon 195323 >

Help